createdAt,value
2019-02-26T00:00:54.709Z,11.60
2019-02-26T00:03:26.432Z,10.98
2019-02-26T00:05:59.390Z,10.55
2019-02-26T00:08:31.714Z,11.38
2019-02-26T00:11:03.808Z,11.08
2019-02-26T00:13:36.602Z,10.95
2019-02-26T00:16:08.034Z,11.63
2019-02-26T00:18:40.126Z,11.10
2019-02-26T00:21:10.591Z,11.48
2019-02-26T00:23:42.041Z,11.70
2019-02-26T00:26:15.615Z,11.20
2019-02-26T00:28:45.869Z,11.08
2019-02-26T00:31:16.565Z,10.80
2019-02-26T00:33:47.393Z,10.70
2019-02-26T00:36:18.145Z,10.80
2019-02-26T00:38:49.807Z,11.00
2019-02-26T00:41:22.597Z,11.18
2019-02-26T00:43:53.544Z,10.72
2019-02-26T00:46:27.871Z,11.03
2019-02-26T00:49:00.447Z,10.93
2019-02-26T00:51:30.990Z,10.60
2019-02-26T00:54:04.123Z,11.15
2019-02-26T00:56:36.499Z,11.35
2019-02-26T00:59:07.277Z,11.03
2019-02-26T01:01:37.977Z,10.93
2019-02-26T01:04:08.638Z,11.03
2019-02-26T01:06:39.226Z,10.50
2019-02-26T01:09:11.592Z,10.70
2019-02-26T01:11:42.937Z,11.45
2019-02-26T01:14:15.782Z,11.38
2019-02-26T01:16:48.311Z,10.98
2019-02-26T01:19:19.900Z,10.63
2019-02-26T01:21:50.829Z,10.85
2019-02-26T01:24:23.524Z,11.20
2019-02-26T01:26:54.027Z,11.38
2019-02-26T01:29:26.027Z,10.13
2019-02-26T01:31:57.225Z,10.85
2019-02-26T01:34:28.079Z,10.23
2019-02-26T01:36:58.571Z,10.48
2019-02-26T01:39:29.113Z,10.80
2019-02-26T01:42:00.074Z,10.68
2019-02-26T01:44:34.584Z,10.60
2019-02-26T01:47:04.707Z,10.82
2019-02-26T01:49:35.308Z,10.43
2019-02-26T01:52:06.648Z,10.43
2019-02-26T01:54:39.608Z,10.25
2019-02-26T01:57:10.112Z,10.32
2019-02-26T01:59:40.808Z,10.58
2019-02-26T02:02:14.761Z,10.08
2019-02-26T02:04:43.943Z,9.68
2019-02-26T02:07:14.644Z,10.63
2019-02-26T02:09:48.667Z,10.32
2019-02-26T02:12:17.777Z,9.65
2019-02-26T02:14:48.431Z,9.80
2019-02-26T02:17:19.062Z,10.15
2019-02-26T02:19:49.782Z,9.70
2019-02-26T02:22:21.335Z,9.65
2019-02-26T02:24:53.984Z,10.35
2019-02-26T02:27:27.231Z,10.38
2019-02-26T02:29:57.805Z,10.63
2019-02-26T02:32:29.814Z,10.18
2019-02-26T02:35:03.727Z,10.18
2019-02-26T02:37:33.425Z,10.43
2019-02-26T02:40:04.298Z,10.20
2019-02-26T02:45:20.976Z,9.98
2019-02-26T02:47:54.778Z,10.00
2019-02-26T02:50:23.709Z,10.00
2019-02-26T02:52:56.136Z,10.23
2019-02-26T02:55:26.607Z,9.83
2019-02-26T02:57:59.948Z,10.13
2019-02-26T03:00:32.152Z,10.00
2019-02-26T03:03:02.088Z,10.48
2019-02-26T03:05:35.150Z,10.28
2019-02-26T03:08:04.962Z,10.85
2019-02-26T03:10:37.327Z,10.10
2019-02-26T03:13:07.807Z,10.10
2019-02-26T03:15:38.244Z,10.53
2019-02-26T03:18:11.803Z,10.35
2019-02-26T03:20:41.361Z,9.50
2019-02-26T03:23:15.763Z,10.20
2019-02-26T03:25:44.523Z,10.13
2019-02-26T03:28:16.244Z,10.08
2019-02-26T03:30:46.855Z,10.05
2019-02-26T03:33:17.620Z,9.98
2019-02-26T03:35:48.222Z,9.75
2019-02-26T03:38:20.725Z,9.93
2019-02-26T03:40:51.920Z,10.28
2019-02-26T03:43:23.596Z,10.78
2019-02-26T03:45:54.088Z,10.30
2019-02-26T03:48:24.808Z,10.45
2019-02-26T03:51:00.707Z,10.82
2019-02-26T03:53:30.515Z,11.20
2019-02-26T03:56:04.250Z,10.43
2019-02-26T03:58:33.172Z,10.18
2019-02-26T04:01:07.299Z,9.95
2019-02-26T04:03:37.605Z,10.70
2019-02-26T04:06:10.027Z,10.60
2019-02-26T04:08:42.230Z,10.48
2019-02-26T04:11:13.923Z,10.68
2019-02-26T04:13:48.691Z,11.18
2019-02-26T04:16:18.566Z,10.90
2019-02-26T04:18:52.007Z,11.10
2019-02-26T04:21:21.447Z,10.80
2019-02-26T04:23:53.076Z,10.43
2019-02-26T04:27:21.373Z,10.50
2019-02-26T04:30:44.498Z,10.60
2019-02-26T04:33:50.594Z,10.88
2019-02-26T04:36:51.237Z,11.30
2019-02-26T04:40:33.024Z,11.00
2019-02-26T04:44:08.027Z,11.25
2019-02-26T04:46:57.635Z,11.63
2019-02-26T04:49:30.869Z,11.33
2019-02-26T04:52:03.028Z,11.22
2019-02-26T04:54:36.821Z,12.30
2019-02-26T04:57:06.739Z,11.90
2019-02-26T04:59:38.728Z,11.40
2019-02-26T05:02:09.832Z,11.85
2019-02-26T05:04:42.114Z,11.18
2019-02-26T05:07:15.783Z,12.25
2019-02-26T05:09:47.328Z,11.97
2019-02-26T05:12:17.967Z,11.48
2019-02-26T05:14:48.573Z,12.18
2019-02-26T05:17:21.449Z,11.60
2019-02-26T05:19:51.746Z,12.05
2019-02-26T05:22:24.901Z,11.97
2019-02-26T05:24:54.918Z,11.73
2019-02-26T05:27:25.707Z,12.00
2019-02-26T05:29:56.401Z,11.60
2019-02-26T05:32:29.859Z,11.95
2019-02-26T05:34:59.405Z,12.13
2019-02-26T05:37:34.753Z,12.28
2019-02-26T05:40:06.508Z,12.13
2019-02-26T05:42:36.786Z,12.37
2019-02-26T05:45:09.307Z,11.63
2019-02-26T05:47:42.871Z,12.07
2019-02-26T05:50:16.181Z,11.90
2019-02-26T05:52:49.700Z,11.93
2019-02-26T05:55:20.577Z,11.60
2019-02-26T05:57:50.449Z,12.10
2019-02-26T06:00:25.141Z,11.00
2019-02-26T06:02:53.717Z,11.28
2019-02-26T06:05:26.140Z,11.08
2019-02-26T06:07:56.895Z,12.20
2019-02-26T06:10:29.828Z,11.28
2019-02-26T06:13:02.057Z,10.10
2019-02-26T06:15:34.181Z,10.45
2019-02-26T06:18:05.042Z,10.20
2019-02-26T06:20:36.619Z,8.70
2019-02-26T06:23:07.411Z,8.30
2019-02-26T06:25:38.320Z,8.13
2019-02-26T06:28:10.535Z,7.00
2019-02-26T06:30:41.770Z,7.30
2019-02-26T06:33:13.999Z,6.40
2019-02-26T06:35:44.902Z,7.08
2019-02-26T06:38:15.773Z,6.10
2019-02-26T06:40:48.972Z,6.40
2019-02-26T06:43:18.918Z,5.78
2019-02-26T06:45:49.657Z,6.78
2019-02-26T06:48:24.436Z,6.03
2019-02-26T06:50:55.171Z,7.47
2019-02-26T06:53:25.478Z,8.35
2019-02-26T06:55:56.073Z,7.90
2019-02-26T06:58:28.650Z,6.95
2019-02-26T07:01:00.576Z,6.20
2019-02-26T07:03:31.150Z,6.03
2019-02-26T07:06:04.648Z,6.28
2019-02-26T07:08:34.159Z,6.60
2019-02-26T07:11:04.639Z,6.03
2019-02-26T07:13:36.686Z,5.67
2019-02-26T07:16:08.052Z,5.65
2019-02-26T07:18:38.638Z,5.67
2019-02-26T07:21:09.372Z,8.50
2019-02-26T07:23:40.135Z,12.35
2019-02-26T07:26:13.125Z,15.50
2019-02-26T07:28:44.164Z,27.77
2019-02-26T07:31:15.809Z,30.55
2019-02-26T07:33:46.394Z,30.02
2019-02-26T07:36:18.545Z,29.52
2019-02-26T07:38:51.997Z,30.25
2019-02-26T07:41:23.153Z,28.35
2019-02-26T07:43:54.893Z,26.73
2019-02-26T07:46:25.747Z,26.00
2019-02-26T07:48:57.248Z,23.20
2019-02-26T07:51:29.354Z,24.80
2019-02-26T07:54:01.384Z,22.10
2019-02-26T07:56:32.841Z,20.25
2019-02-26T07:59:06.787Z,20.30
2019-02-26T08:01:37.628Z,19.27
2019-02-26T08:04:11.069Z,18.40
2019-02-26T08:06:41.318Z,17.12
2019-02-26T08:09:14.037Z,16.52
2019-02-26T08:11:46.910Z,16.87
2019-02-26T08:14:18.490Z,15.80
2019-02-26T08:16:53.652Z,15.23
2019-02-26T08:19:22.273Z,13.60
2019-02-26T08:21:54.848Z,14.43
2019-02-26T08:24:25.349Z,12.33
2019-02-26T08:26:56.372Z,12.50
2019-02-26T08:29:28.907Z,11.73
2019-02-26T08:32:01.864Z,11.90
2019-02-26T08:34:32.007Z,12.00
2019-02-26T08:37:02.964Z,10.85
2019-02-26T08:39:37.856Z,10.55
2019-02-26T08:42:10.295Z,10.35
2019-02-26T08:44:40.871Z,9.70
2019-02-26T08:47:13.533Z,9.58
2019-02-26T08:49:45.136Z,10.65
2019-02-26T08:52:17.482Z,11.63
2019-02-26T08:54:48.068Z,10.28
2019-02-26T08:57:18.478Z,8.88
2019-02-26T08:59:49.762Z,9.15
2019-02-26T09:02:21.308Z,9.68
2019-02-26T09:04:52.137Z,9.25
2019-02-26T09:07:23.813Z,9.05
2019-02-26T09:09:57.467Z,7.37
2019-02-26T09:12:27.382Z,7.85
2019-02-26T09:14:58.066Z,8.30
2019-02-26T09:17:30.412Z,7.25
2019-02-26T09:20:09.270Z,7.35
2019-02-26T09:22:33.087Z,7.28
2019-02-26T09:25:03.638Z,6.90
2019-02-26T09:27:39.364Z,6.70
2019-02-26T09:30:11.722Z,6.40
2019-02-26T09:32:44.722Z,7.47
2019-02-26T09:35:16.876Z,7.10
2019-02-26T09:37:49.963Z,6.62
2019-02-26T09:40:23.028Z,6.72
2019-02-26T09:42:54.587Z,6.28
2019-02-26T09:45:28.645Z,6.45
2019-02-26T09:47:57.992Z,5.72
2019-02-26T09:50:28.834Z,5.85
2019-02-26T09:52:59.495Z,6.20
2019-02-26T09:55:29.971Z,6.28
2019-02-26T09:58:02.488Z,5.20
2019-02-26T10:00:32.865Z,5.58
2019-02-26T10:03:06.138Z,5.70
2019-02-26T10:05:35.935Z,5.80
2019-02-26T10:08:06.728Z,5.30
2019-02-26T10:10:39.670Z,5.33
2019-02-26T10:13:09.619Z,5.17
2019-02-26T10:15:42.262Z,4.85
2019-02-26T10:18:12.935Z,4.87
2019-02-26T10:20:45.578Z,5.15
2019-02-26T10:23:15.939Z,4.80
2019-02-26T10:25:46.571Z,4.70
2019-02-26T10:28:19.020Z,4.50
2019-02-26T10:30:49.471Z,4.42
2019-02-26T10:33:21.113Z,4.60
2019-02-26T10:35:51.793Z,4.62
2019-02-26T10:38:24.184Z,4.75
2019-02-26T10:40:57.389Z,4.60
2019-02-26T10:43:27.422Z,4.15
2019-02-26T10:45:58.012Z,4.45
2019-02-26T10:48:28.502Z,4.20
2019-02-26T10:50:59.057Z,4.45
2019-02-26T10:53:29.869Z,4.20
2019-02-26T10:56:00.622Z,4.00
2019-02-26T10:58:31.345Z,4.10
2019-02-26T11:01:05.203Z,3.80
2019-02-26T11:03:37.974Z,3.85
2019-02-26T11:06:08.162Z,3.75
2019-02-26T11:08:39.406Z,4.03
2019-02-26T11:11:13.034Z,4.22
2019-02-26T11:13:43.564Z,4.03
2019-02-26T11:16:22.941Z,3.60
2019-02-26T11:18:47.748Z,4.08
2019-02-26T11:21:18.499Z,4.00
2019-02-26T11:23:49.258Z,4.12
2019-02-26T11:26:19.787Z,4.30
2019-02-26T11:28:50.502Z,3.98
2019-02-26T11:31:25.294Z,4.17
2019-02-26T11:33:56.384Z,3.85
2019-02-26T11:36:25.796Z,4.05
2019-02-26T11:38:56.559Z,3.98
2019-02-26T11:41:28.867Z,3.80
2019-02-26T11:43:59.747Z,3.77
2019-02-26T11:46:34.088Z,3.80
2019-02-26T11:49:02.828Z,3.60
2019-02-26T11:51:37.183Z,3.80
2019-02-26T11:54:08.286Z,3.55
2019-02-26T11:56:42.016Z,3.83
2019-02-26T11:59:12.613Z,3.72
2019-02-26T12:01:42.982Z,3.70
2019-02-26T12:04:14.282Z,3.40
2019-02-26T12:06:45.784Z,3.80
2019-02-26T12:09:16.532Z,3.70
2019-02-26T12:11:47.437Z,4.05
2019-02-26T12:14:21.161Z,4.15
2019-02-26T12:16:50.633Z,3.58
2019-02-26T12:19:23.109Z,3.70
2019-02-26T12:21:55.177Z,3.25
2019-02-26T12:24:26.673Z,3.62
2019-02-26T12:26:58.383Z,3.30
2019-02-26T12:29:29.015Z,3.30
2019-02-26T12:32:01.217Z,3.45
2019-02-26T12:34:32.184Z,3.52
2019-02-26T12:37:05.880Z,3.37
2019-02-26T12:39:35.337Z,3.50
2019-02-26T12:42:07.398Z,3.47
2019-02-26T12:44:42.363Z,3.27
2019-02-26T12:47:11.998Z,3.50
2019-02-26T12:49:45.102Z,3.15
2019-02-26T12:52:17.950Z,3.27
2019-02-26T12:54:48.842Z,3.45
2019-02-26T12:57:23.034Z,3.25
2019-02-26T12:59:51.674Z,3.30
2019-02-26T13:02:25.633Z,3.50
2019-02-26T13:04:54.724Z,3.72
2019-02-26T13:07:25.412Z,3.62
2019-02-26T13:10:02.734Z,3.72
2019-02-26T13:12:32.362Z,3.45
2019-02-26T13:15:08.733Z,3.45
2019-02-26T13:17:36.092Z,3.47
2019-02-26T13:20:11.082Z,3.50
2019-02-26T13:22:45.756Z,3.40
2019-02-26T13:25:17.776Z,3.50
2019-02-26T13:27:48.412Z,4.15
2019-02-26T13:30:24.214Z,4.47
2019-02-26T13:32:58.121Z,5.20
2019-02-26T13:35:27.445Z,4.45
2019-02-26T13:37:58.249Z,4.28
2019-02-26T13:40:37.853Z,3.72
2019-02-26T13:45:34.473Z,4.03
2019-02-26T13:48:05.458Z,4.03
2019-02-26T13:50:36.068Z,4.22
2019-02-26T13:53:07.084Z,4.47
2019-02-26T13:55:37.965Z,4.03
2019-02-26T13:58:11.849Z,3.87
2019-02-26T14:00:41.664Z,4.40
2019-02-26T14:03:12.290Z,4.30
2019-02-26T14:05:43.166Z,4.25
2019-02-26T14:08:13.940Z,4.35
2019-02-26T14:10:44.561Z,4.30
2019-02-26T14:13:15.488Z,4.53
2019-02-26T14:15:46.374Z,4.70
2019-02-26T14:18:16.784Z,4.87
2019-02-26T14:20:47.429Z,5.08
2019-02-26T14:23:17.892Z,4.92
2019-02-26T14:25:48.401Z,4.92
2019-02-26T14:28:19.307Z,4.60
2019-02-26T14:30:49.970Z,4.78
2019-02-26T14:33:20.811Z,4.53
2019-02-26T14:35:52.118Z,5.35
2019-02-26T14:38:23.430Z,5.22
2019-02-26T14:40:54.498Z,4.53
2019-02-26T14:43:25.079Z,4.30
2019-02-26T14:45:55.777Z,4.50
2019-02-26T14:48:26.843Z,4.37
2019-02-26T14:50:57.622Z,4.28
2019-02-26T14:53:28.460Z,4.20
2019-02-26T14:55:59.979Z,4.62
2019-02-26T14:58:31.180Z,4.50
2019-02-26T15:01:03.771Z,4.62
2019-02-26T15:03:34.335Z,4.85
2019-02-26T15:06:05.453Z,5.00
2019-02-26T15:08:36.603Z,4.92
2019-02-26T15:11:08.085Z,5.00
2019-02-26T15:13:39.202Z,5.50
2019-02-26T15:16:10.056Z,5.17
2019-02-26T15:18:40.865Z,5.78
2019-02-26T15:21:16.182Z,4.85
2019-02-26T15:23:59.087Z,5.37
2019-02-26T15:26:31.370Z,5.15
2019-02-26T15:29:09.124Z,5.50
2019-02-26T15:31:42.115Z,4.83
2019-02-26T15:34:16.336Z,5.30
2019-02-26T15:36:49.557Z,4.87
2019-02-26T15:39:22.329Z,5.20
2019-02-26T15:41:55.684Z,5.30
2019-02-26T15:44:34.499Z,5.95
2019-02-26T15:47:09.299Z,6.60
2019-02-26T15:49:46.096Z,6.90
2019-02-26T15:52:21.420Z,7.47
2019-02-26T15:54:52.261Z,6.80
2019-02-26T15:57:23.692Z,10.88
2019-02-26T15:59:56.327Z,9.23
2019-02-26T16:02:29.260Z,7.65
2019-02-26T16:05:01.356Z,7.15
2019-02-26T16:07:33.315Z,7.40
2019-02-26T16:10:08.112Z,7.33
2019-02-26T16:12:40.877Z,7.00
2019-02-26T16:15:13.836Z,6.40
2019-02-26T16:17:46.733Z,6.42
2019-02-26T16:20:20.616Z,6.20
2019-02-26T16:22:52.360Z,6.10
2019-02-26T16:25:24.801Z,6.50
2019-02-26T16:27:57.067Z,5.97
2019-02-26T16:30:27.626Z,5.87
2019-02-26T16:32:59.585Z,5.85
2019-02-26T16:35:32.001Z,5.47
2019-02-26T16:38:03.588Z,5.60
2019-02-26T16:40:36.724Z,6.37
2019-02-26T16:43:07.657Z,6.85
2019-02-26T16:45:38.599Z,8.28
2019-02-26T16:48:09.068Z,8.23
2019-02-26T16:50:39.966Z,7.10
2019-02-26T16:53:10.412Z,7.37
2019-02-26T16:55:41.134Z,7.25
2019-02-26T16:58:11.631Z,6.17
2019-02-26T17:00:42.459Z,6.70
2019-02-26T17:03:13.054Z,6.47
2019-02-26T17:05:47.260Z,5.92
2019-02-26T17:08:16.267Z,6.62
2019-02-26T17:10:46.980Z,6.08
2019-02-26T17:13:17.715Z,6.40
2019-02-26T17:15:48.268Z,6.10
2019-02-26T17:18:19.038Z,6.05
2019-02-26T17:20:49.856Z,6.15
2019-02-26T17:23:20.444Z,5.95
2019-02-26T17:25:51.299Z,6.00
2019-02-26T17:28:22.168Z,6.12
2019-02-26T17:30:57.404Z,5.47
2019-02-26T17:33:26.347Z,5.50
2019-02-26T17:35:59.524Z,5.20
2019-02-26T17:38:29.787Z,5.10
2019-02-26T17:41:00.705Z,5.35
2019-02-26T17:43:31.234Z,5.45
2019-02-26T17:46:02.052Z,4.65
2019-02-26T17:48:43.092Z,5.25
2019-02-26T17:51:05.279Z,5.22
2019-02-26T17:53:35.926Z,4.90
2019-02-26T17:56:06.627Z,4.97
2019-02-26T17:58:37.611Z,4.72
2019-02-26T18:01:08.335Z,4.72
2019-02-26T18:03:38.958Z,4.60
2019-02-26T18:06:10.735Z,4.58
2019-02-26T18:08:41.650Z,4.65
2019-02-26T18:11:12.506Z,4.62
2019-02-26T18:13:43.062Z,4.37
2019-02-26T18:16:13.706Z,4.10
2019-02-26T18:18:44.273Z,4.53
2019-02-26T18:21:15.008Z,4.28
2019-02-26T18:23:45.758Z,4.33
2019-02-26T18:26:17.830Z,4.65
2019-02-26T18:28:49.152Z,4.50
2019-02-26T18:31:26.254Z,3.72
2019-02-26T18:33:52.163Z,4.00
2019-02-26T18:36:24.073Z,4.10
2019-02-26T18:38:54.886Z,4.22
2019-02-26T18:41:25.540Z,4.25
2019-02-26T18:44:04.221Z,3.90
2019-02-26T18:46:35.109Z,15.75
2019-02-26T18:49:06.024Z,55.40
2019-02-26T18:51:37.094Z,24.60
2019-02-26T18:54:07.890Z,46.18
2019-02-26T18:56:41.754Z,50.12
2019-02-26T18:59:12.692Z,840.95
2019-02-26T19:01:43.379Z,878.37
2019-02-26T19:04:16.301Z,798.92
2019-02-26T19:06:46.590Z,783.38
2019-02-26T19:09:17.941Z,776.92
2019-02-26T19:11:48.507Z,756.40
2019-02-26T19:14:19.224Z,752.37
2019-02-26T19:16:54.212Z,744.73
2019-02-26T19:19:22.423Z,734.37
2019-02-26T19:21:54.203Z,729.08
2019-02-26T19:24:25.435Z,720.38
2019-02-26T19:26:56.087Z,663.90
2019-02-26T19:29:26.785Z,587.75
2019-02-26T19:31:57.415Z,504.92
2019-02-26T19:34:28.957Z,426.70
2019-02-26T19:36:59.803Z,355.57
2019-02-26T19:39:33.527Z,307.40
2019-02-26T19:42:05.308Z,215.25
2019-02-26T19:44:36.498Z,157.12
2019-02-26T19:47:07.356Z,161.30
2019-02-26T19:49:39.647Z,163.05
2019-02-26T19:52:10.436Z,138.30
2019-02-26T19:54:41.974Z,133.93
2019-02-26T19:57:13.258Z,128.27
2019-02-26T19:59:46.858Z,128.82
2019-02-26T20:02:16.875Z,125.95
2019-02-26T20:04:47.505Z,126.12
2019-02-26T20:07:18.257Z,120.72
2019-02-26T20:09:48.694Z,116.20
2019-02-26T20:12:19.517Z,108.55
2019-02-26T20:14:50.163Z,103.47
2019-02-26T20:17:20.942Z,97.47
2019-02-26T20:19:51.693Z,99.35
2019-02-26T20:22:22.434Z,94.47
2019-02-26T20:24:53.279Z,92.88
2019-02-26T20:27:24.117Z,93.82
2019-02-26T20:29:54.859Z,88.47
2019-02-26T20:32:30.492Z,86.40
2019-02-26T20:34:58.037Z,88.55
2019-02-26T20:37:28.686Z,85.07
2019-02-26T20:39:59.455Z,83.25
2019-02-26T20:42:30.267Z,83.70
2019-02-26T20:45:00.781Z,80.12
2019-02-26T20:47:32.266Z,78.57
2019-02-26T20:50:03.237Z,77.20
2019-02-26T20:52:34.073Z,77.15
2019-02-26T20:55:04.746Z,73.07
2019-02-26T20:57:37.801Z,72.27
2019-02-26T21:00:10.791Z,70.87
2019-02-26T21:02:41.675Z,67.95
2019-02-26T21:05:12.622Z,65.67
2019-02-26T21:07:43.212Z,59.30
2019-02-26T21:10:15.287Z,56.95
2019-02-26T21:12:47.501Z,55.40
2019-02-26T21:15:19.348Z,53.33
2019-02-26T21:17:50.201Z,51.45
2019-02-26T21:20:20.890Z,49.95
2019-02-26T21:22:54.615Z,48.55
2019-02-26T21:25:24.237Z,47.83
2019-02-26T21:27:55.054Z,47.27
2019-02-26T21:30:25.787Z,45.52
2019-02-26T21:32:58.051Z,41.75
2019-02-26T21:35:29.023Z,39.58
2019-02-26T21:37:59.814Z,36.60
2019-02-26T21:40:30.555Z,35.63
2019-02-26T21:43:02.399Z,35.08
2019-02-26T21:45:33.360Z,35.48
2019-02-26T21:48:03.996Z,35.05
2019-02-26T21:50:34.864Z,36.30
2019-02-26T21:53:05.584Z,36.05
2019-02-26T21:55:43.997Z,34.40
2019-02-26T21:58:08.782Z,34.83
2019-02-26T22:00:39.838Z,32.78
2019-02-26T22:03:10.930Z,29.55
2019-02-26T22:05:41.911Z,31.05
2019-02-26T22:08:12.950Z,31.15
2019-02-26T22:10:43.628Z,30.12
2019-02-26T22:13:14.284Z,29.50
2019-02-26T22:15:45.325Z,29.10
2019-02-26T22:18:15.944Z,29.72
2019-02-26T22:20:46.633Z,28.62
2019-02-26T22:23:17.275Z,26.77
2019-02-26T22:25:49.812Z,26.45
2019-02-26T22:28:20.389Z,25.97
2019-02-26T22:30:55.720Z,26.07
2019-02-26T22:33:24.652Z,24.60
2019-02-26T22:35:57.033Z,24.85
2019-02-26T22:38:27.574Z,24.98
2019-02-26T22:40:59.969Z,23.07
2019-02-26T22:43:30.715Z,22.32
2019-02-26T22:46:01.806Z,21.42
2019-02-26T22:48:32.517Z,21.97
2019-02-26T22:51:03.192Z,21.40
2019-02-26T22:53:36.436Z,22.15
2019-02-26T22:56:06.441Z,20.70
2019-02-26T22:58:37.621Z,20.08
2019-02-26T23:01:18.503Z,20.15
2019-02-26T23:03:50.008Z,20.62
2019-02-26T23:06:20.606Z,19.70
2019-02-26T23:08:51.265Z,18.55
2019-02-26T23:11:22.025Z,18.85
2019-02-26T23:13:52.873Z,18.65
2019-02-26T23:16:24.054Z,18.02
2019-02-26T23:18:55.115Z,18.32
2019-02-26T23:21:25.829Z,18.02
2019-02-26T23:23:56.675Z,18.37
2019-02-26T23:26:27.389Z,17.27
2019-02-26T23:28:58.061Z,17.65
2019-02-26T23:31:32.725Z,17.45
2019-02-26T23:34:01.770Z,16.23
2019-02-26T23:36:32.192Z,16.02
2019-02-26T23:39:02.766Z,16.40
2019-02-26T23:41:33.847Z,15.43
2019-02-26T23:44:04.719Z,15.32
2019-02-26T23:46:35.210Z,15.10
2019-02-26T23:49:05.965Z,15.53
2019-02-26T23:51:36.874Z,14.90
2019-02-26T23:54:07.987Z,15.05
2019-02-26T23:56:38.690Z,14.85
2019-02-26T23:59:09.195Z,14.87
